Time;durP1;ratioP1;P1;durP2;ratioP2;P2;SDS_P1;SDS_P2;PMS_P1;PMS_P2;Temp;Humidity;BMP_temperature;BMP_pressure;BME280_temperature;BME280_humidity;BME280_pressure;Samples;Min_cycle;Max_cycle;Signal;HPM_P1;HPM_P2
2023/10/15 00:00:15;;;;;;;8.90;1.50;;;;;;;-128.00;-1.00;-1.00;100048;1284;1002677;-31
2023/10/15 00:02:44;;;;;;;4.40;1.20;;;;;;;-128.00;-1.00;-1.00;99941;1284;1041537;-31
2023/10/15 00:05:28;;;;;;;9.40;1.40;;;;;;;-128.00;-1.00;-1.00;99880;1284;1046689;-31
2023/10/15 00:07:53;;;;;;;7.40;1.30;;;;;;;-128.00;-1.00;-1.00;99777;1284;1063446;-35
2023/10/15 00:10:21;;;;;;;8.70;1.70;;;;;;;-128.00;-1.00;-1.00;99907;1289;1003482;-35
2023/10/15 00:12:48;;;;;;;9.60;1.20;;;;;;;-128.00;-1.00;-1.00;99878;1284;1012382;-31
2023/10/15 00:15:19;;;;;;;9.60;1.40;;;;;;;-128.00;-1.00;-1.00;100028;1284;1003004;-31
2023/10/15 00:17:46;;;;;;;6.00;1.10;;;;;;;-128.00;-1.00;-1.00;99912;1284;1046989;-32
2023/10/15 00:20:18;;;;;;;8.50;1.20;;;;;;;-128.00;-1.00;-1.00;99989;1284;1003576;-33
2023/10/15 00:22:47;;;;;;;10.80;1.20;;;;;;;-128.00;-1.00;-1.00;99938;1284;1055681;-33
2023/10/15 00:25:14;;;;;;;9.70;1.10;;;;;;;-128.00;-1.00;-1.00;100059;1289;1061286;-32
2023/10/15 00:27:42;;;;;;;9.20;1.30;;;;;;;-128.00;-1.00;-1.00;99879;1284;1004782;-34
2023/10/15 00:30:18;;;;;;;9.60;1.40;;;;;;;-128.00;-1.00;-1.00;99960;1285;1038427;-31
2023/10/15 00:32:44;;;;;;;7.60;1.00;;;;;;;-128.00;-1.00;-1.00;99897;1284;1047807;-34
2023/10/15 00:35:10;;;;;;;10.50;2.40;;;;;;;-128.00;-1.00;-1.00;100061;1284;1003549;-34
2023/10/15 00:37:40;;;;;;;6.60;1.40;;;;;;;-128.00;-1.00;-1.00;100010;1285;1004826;-32
2023/10/15 00:40:16;;;;;;;4.00;1.10;;;;;;;-128.00;-1.00;-1.00;99866;1284;1060151;-34
2023/10/15 00:42:44;;;;;;;6.70;1.40;;;;;;;-128.00;-1.00;-1.00;100010;1289;1012833;-31
2023/10/15 00:45:10;;;;;;;6.30;1.00;;;;;;;-128.00;-1.00;-1.00;99959;1289;1039390;-34
2023/10/15 00:47:36;;;;;;;4.30;1.20;;;;;;;-128.00;-1.00;-1.00;99997;1284;1003477;-34
2023/10/15 00:50:07;;;;;;;8.70;1.50;;;;;;;-128.00;-1.00;-1.00;99969;1288;1002529;-33
2023/10/15 00:52:37;;;;;;;6.10;1.40;;;;;;;-128.00;-1.00;-1.00;99790;1284;1059034;-37
2023/10/15 00:55:07;;;;;;;9.30;1.40;;;;;;;-128.00;-1.00;-1.00;100003;1284;1015686;-33
2023/10/15 01:02:56;;;;;;;7.00;1.30;;;;;;;-128.00;-1.00;-1.00;100095;1284;1060927;-33
2023/10/15 01:05:25;;;;;;;7.50;1.30;;;;;;;-128.00;-1.00;-1.00;100007;1284;1004125;-32
2023/10/15 01:07:51;;;;;;;6.00;1.20;;;;;;;-128.00;-1.00;-1.00;99957;1284;1058890;-34
2023/10/15 01:10:36;;;;;;;8.40;1.30;;;;;;;-128.00;-1.00;-1.00;100028;1285;1003315;-32
2023/10/15 01:15:52;;;;;;;7.10;1.30;;;;;;;-128.00;-1.00;-1.00;100020;1285;1046295;-33
2023/10/15 01:18:17;;;;;;;9.80;1.60;;;;;;;-128.00;-1.00;-1.00;100042;1284;1060364;-34
2023/10/15 01:20:43;;;;;;;6.10;1.00;;;;;;;-128.00;-1.00;-1.00;99988;1284;1003004;-31
2023/10/15 01:23:13;;;;;;;7.80;0.90;;;;;;;-128.00;-1.00;-1.00;100006;1284;1003237;-30
2023/10/15 01:25:46;;;;;;;4.90;1.20;;;;;;;-128.00;-1.00;-1.00;100031;1285;1039643;-32
2023/10/15 01:28:12;;;;;;;9.00;1.70;;;;;;;-128.00;-1.00;-1.00;100014;1284;1046864;-34
2023/10/15 01:30:37;;;;;;;11.50;1.60;;;;;;;-128.00;-1.00;-1.00;100153;1284;1004693;-32
2023/10/15 01:33:10;;;;;;;6.30;1.10;;;;;;;-128.00;-1.00;-1.00;99948;1284;1005589;-32
2023/10/15 01:35:38;;;;;;;10.80;1.40;;;;;;;-128.00;-1.00;-1.00;99999;1284;1012811;-32
2023/10/15 01:38:10;;;;;;;10.50;1.30;;;;;;;-128.00;-1.00;-1.00;100030;1286;1002840;-35
2023/10/15 01:43:33;;;;;;;9.00;1.20;;;;;;;-128.00;-1.00;-1.00;97975;1284;3006381;-34
2023/10/15 01:50:51;;;;;;;9.00;1.20;;;;;;;-128.00;-1.00;-1.00;26946;1289;359756257;-33
2023/10/15 01:53:16;;;;;;;7.60;1.50;;;;;;;-128.00;-1.00;-1.00;55678;1284;64004094;-34
2023/10/15 02:34:52;;;;;;;10.60;1.90;;;;;;;;;;104444;1279;600608;-31
2023/10/15 02:37:18;;;;;;;11.90;1.50;;;;;;;;;;104429;1275;92438;-34
2023/10/15 02:42:30;;;;;;;6.30;1.20;;;;;;;;;;104602;1279;60506;-32
2023/10/15 02:44:58;;;;;;;10.80;1.40;;;;;;;;;;104681;1276;61550;-34
2023/10/15 02:50:05;;;;;;;10.90;1.30;;;;;;;;;;104556;1275;61688;-32
2023/10/15 02:52:43;;;;;;;8.90;1.70;;;;;;;;;;104669;1275;61397;-33
2023/10/15 02:55:10;;;;;;;9.80;1.60;;;;;;;;;;104780;1276;61397;-34
2023/10/15 02:57:38;;;;;;;9.80;1.30;;;;;;;;;;104516;1276;61339;-31
2023/10/15 03:00:13;;;;;;;6.40;1.20;;;;;;;;;;104634;1275;61253;-33
2023/10/15 03:02:43;;;;;;;5.10;1.00;;;;;;;;;;104758;1276;60886;-35
2023/10/15 03:05:13;;;;;;;7.40;1.10;;;;;;;;;;104572;1275;61637;-32
2023/10/15 03:07:42;;;;;;;5.90;1.10;;;;;;;;;;104534;1277;61683;-32
2023/10/15 03:10:08;;;;;;;6.10;1.20;;;;;;;;;;104489;1281;61535;-35
2023/10/15 03:12:33;;;;;;;4.00;0.80;;;;;;;;;;104607;1275;60856;-33
2023/10/15 03:15:00;;;;;;;8.50;1.30;;;;;;;;;;104744;1275;60869;-34
2023/10/15 03:17:29;;;;;;;5.30;1.10;;;;;;;;;;104508;1276;60884;-34
2023/10/15 03:19:54;;;;;;;5.90;1.10;;;;;;;;;;104628;1276;61233;-32
2023/10/15 03:22:23;;;;;;;8.10;1.00;;;;;;;;;;104652;1277;60891;-34
2023/10/15 03:24:49;;;;;;;5.50;0.80;;;;;;;;;;104592;1279;60748;-33
2023/10/15 03:27:16;;;;;;;13.40;0.90;;;;;;;;;;104643;1276;60890;-34
2023/10/15 03:29:42;;;;;;;5.10;1.10;;;;;;;;;;104558;1276;61116;-32
2023/10/15 03:32:12;;;;;;;7.30;1.30;;;;;;;;;;104664;1275;61134;-34
2023/10/15 03:34:42;;;;;;;6.60;1.10;;;;;;;;;;104643;1276;60756;-33
2023/10/15 03:37:12;;;;;;;11.40;1.00;;;;;;;;;;104573;1276;61588;-33
2023/10/15 03:42:09;;;;;;;5.70;1.30;;;;;;;;;;104544;1276;60869;-31
2023/10/15 03:44:44;;;;;;;5.50;1.00;;;;;;;;;;104569;1276;60655;-31
2023/10/15 03:47:14;;;;;;;4.90;1.10;;;;;;;;;;104575;1276;61228;-32
2023/10/15 03:49:39;;;;;;;9.90;1.00;;;;;;;;;;104543;1277;60767;-32
2023/10/15 03:52:08;;;;;;;3.10;0.60;;;;;;;;;;104731;1276;60795;-35
2023/10/15 03:54:35;;;;;;;4.30;0.70;;;;;;;;;;104510;1276;60754;-33
2023/10/15 03:57:01;;;;;;;2.80;0.80;;;;;;;;;;104576;1276;60767;-33
2023/10/15 03:59:27;;;;;;;5.70;0.90;;;;;;;;;;104646;1277;60792;-36
2023/10/15 04:01:52;;;;;;;10.10;1.10;;;;;;;;;;104481;1279;60894;-31
2023/10/15 04:04:18;;;;;;;6.70;0.90;;;;;;;;;;104520;1276;60936;-32
2023/10/15 04:09:25;;;;;;;7.00;0.50;;;;;;;;;;104551;1276;60882;-33
2023/10/15 04:11:50;;;;;;;9.70;1.00;;;;;;;;;;104646;1276;60684;-34
2023/10/15 04:16:57;;;;;;;1.30;0.30;;;;;;;;;;104650;1276;60869;-33
2023/10/15 04:19:25;;;;;;;5.60;0.60;;;;;;;;;;104646;1277;60920;-33
2023/10/15 04:21:52;;;;;;;2.60;0.50;;;;;;;;;;104570;1280;60674;-35
2023/10/15 04:24:21;;;;;;;5.00;0.70;;;;;;;;;;104514;1280;60833;-34
2023/10/15 04:26:48;;;;;;;5.60;0.50;;;;;;;;;;104513;1276;60754;-34
2023/10/15 04:29:17;;;;;;;3.30;0.20;;;;;;;;;;104543;1276;62365;-35
2023/10/15 04:31:44;;;;;;;3.50;0.40;;;;;;;;;;104669;1277;60664;-32
2023/10/15 04:34:15;;;;;;;4.00;0.50;;;;;;;;;;104526;1276;60804;-33
2023/10/15 04:36:41;;;;;;;4.00;0.90;;;;;;;;;;104655;1281;60620;-31
2023/10/15 04:39:11;;;;;;;5.10;0.60;;;;;;;;;;104497;1276;60988;-33
2023/10/15 04:41:37;;;;;;;7.40;0.70;;;;;;;;;;104518;1276;60736;-32
2023/10/15 04:44:03;;;;;;;5.10;0.50;;;;;;;;;;104730;1281;60968;-32
2023/10/15 04:46:30;;;;;;;11.00;1.50;;;;;;;;;;104657;1276;60939;-33
2023/10/15 04:48:55;;;;;;;3.90;0.60;;;;;;;;;;104700;1276;60885;-35
2023/10/15 04:51:29;;;;;;;3.60;0.40;;;;;;;;;;104648;1276;60807;-32
2023/10/15 04:53:55;;;;;;;7.30;0.60;;;;;;;;;;104566;1281;60780;-33
2023/10/15 04:56:21;;;;;;;12.10;1.40;;;;;;;;;;104560;1276;60907;-33
2023/10/15 04:58:48;;;;;;;5.90;0.70;;;;;;;;;;104562;1276;60914;-32
2023/10/15 05:01:14;;;;;;;7.30;0.70;;;;;;;;;;104541;1276;60872;-34
2023/10/15 05:03:40;;;;;;;3.50;0.60;;;;;;;;;;104538;1276;60878;-34
2023/10/15 05:06:10;;;;;;;4.70;0.80;;;;;;;;;;104657;1276;60919;-35
2023/10/15 05:08:36;;;;;;;4.10;0.70;;;;;;;;;;104531;1280;60885;-32
2023/10/15 05:11:01;;;;;;;11.10;0.80;;;;;;;;;;104589;1276;61005;-32
2023/10/15 05:13:26;;;;;;;4.70;0.60;;;;;;;;;;104562;1277;61310;-32
2023/10/15 05:15:52;;;;;;;2.10;0.80;;;;;;;;;;104716;1276;60975;-33
2023/10/15 05:18:18;;;;;;;5.20;0.40;;;;;;;;;;104654;1276;60786;-35
2023/10/15 05:20:50;;;;;;;6.60;0.60;;;;;;;;;;104500;1276;60895;-33
2023/10/15 05:23:16;;;;;;;2.20;0.70;;;;;;;;;;104549;1276;60653;-34
2023/10/15 05:25:41;;;;;;;6.10;0.90;;;;;;;;;;104620;1277;60975;-34
2023/10/15 05:28:06;;;;;;;8.20;0.60;;;;;;;;;;104731;1276;60846;-32
2023/10/15 05:30:32;;;;;;;1.60;0.40;;;;;;;;;;104538;1276;60901;-32
2023/10/15 05:33:00;;;;;;;1.10;0.50;;;;;;;;;;104690;1276;60872;-33
2023/10/15 05:35:27;;;;;;;4.40;0.50;;;;;;;;;;104506;1276;60882;-34
2023/10/15 05:37:52;;;;;;;1.90;0.30;;;;;;;;;;104623;1276;60826;-32
2023/10/15 05:40:20;;;;;;;1.10;0.30;;;;;;;;;;104790;1276;60872;-34
2023/10/15 05:42:46;;;;;;;5.70;0.40;;;;;;;;;;104599;1276;61391;-35
2023/10/15 05:45:11;;;;;;;7.30;0.70;;;;;;;;;;104471;1276;60907;-32
2023/10/15 05:47:37;;;;;;;1.00;0.30;;;;;;;;;;104515;1276;60878;-31
2023/10/15 05:50:05;;;;;;;5.20;1.60;;;;;;;;;;104737;1277;61794;-32
2023/10/15 05:52:31;;;;;;;9.20;0.50;;;;;;;;;;104563;1282;60761;-31
2023/10/15 05:54:56;;;;;;;2.20;0.20;;;;;;;;;;104525;1277;60901;-31
2023/10/15 05:57:22;;;;;;;2.60;0.60;;;;;;;;;;104561;1277;60895;-31
2023/10/15 05:59:50;;;;;;;2.50;0.70;;;;;;;;;;104782;1276;60916;-33
2023/10/15 06:02:15;;;;;;;4.70;0.50;;;;;;;;;;104681;1281;60945;-31
2023/10/15 06:04:42;;;;;;;3.20;0.90;;;;;;;;;;104671;1282;60891;-32
2023/10/15 06:07:08;;;;;;;2.10;0.50;;;;;;;;;;104667;1281;60846;-34
2023/10/15 06:09:34;;;;;;;2.30;0.60;;;;;;;;;;104550;1276;60911;-31
2023/10/15 06:12:00;;;;;;;6.50;0.60;;;;;;;;;;104744;1277;61090;-33
2023/10/15 06:14:28;;;;;;;4.70;0.60;;;;;;;;;;104735;1277;60927;-33
2023/10/15 06:16:53;;;;;;;7.90;0.70;;;;;;;;;;104634;1276;61063;-31
2023/10/15 06:19:19;;;;;;;3.50;0.50;;;;;;;;;;104651;1276;60971;-32
2023/10/15 06:21:44;;;;;;;9.80;1.70;;;;;;;;;;104594;1281;60879;-32
2023/10/15 06:24:10;;;;;;;1.50;0.30;;;;;;;;;;104659;1277;60849;-32
2023/10/15 06:26:36;;;;;;;4.80;0.50;;;;;;;;;;104640;1276;60879;-34
2023/10/15 06:29:01;;;;;;;1.60;0.30;;;;;;;;;;104476;1276;61275;-31
2023/10/15 06:31:28;;;;;;;8.80;1.30;;;;;;;;;;104663;1282;60869;-34
2023/10/15 06:33:55;;;;;;;13.80;0.70;;;;;;;;;;104752;1281;60849;-32
2023/10/15 06:36:20;;;;;;;6.00;0.90;;;;;;;;;;104743;1277;60738;-32
2023/10/15 06:38:46;;;;;;;5.00;0.60;;;;;;;;;;104665;1281;60878;-33
2023/10/15 06:41:11;;;;;;;7.60;0.90;;;;;;;;;;104700;1280;61714;-35
2023/10/15 06:43:36;;;;;;;5.20;0.70;;;;;;;;;;104434;1276;61646;-32
2023/10/15 06:46:08;;;;;;;9.40;0.90;;;;;;;;;;104544;1276;61644;-32
2023/10/15 06:48:34;;;;;;;6.20;0.60;;;;;;;;;;104497;1276;61669;-32
2023/10/15 06:51:04;;;;;;;;;;;;;;;;;;104605;1281;61723;-34
2023/10/15 06:53:30;;;;;;;6.50;0.60;;;;;;;;;;104568;1276;62008;-33
2023/10/15 06:55:55;;;;;;;3.70;0.70;;;;;;;;;;104603;1276;61680;-35
2023/10/15 06:58:20;;;;;;;5.50;0.80;;;;;;;;;;104760;1277;62040;-35
2023/10/15 07:00:46;;;;;;;4.70;1.40;;;;;;;;;;104625;1276;61746;-36
2023/10/15 07:03:11;;;;;;;6.80;1.30;;;;;;;;;;104567;1277;61678;-32
2023/10/15 07:05:36;;;;;;;9.60;1.10;;;;;;;;;;104604;1276;60584;-34
2023/10/15 07:08:01;;;;;;;6.70;1.00;;;;;;;;;;104649;1276;61701;-34
2023/10/15 07:10:27;;;;;;;5.90;0.90;;;;;;;;;;104489;1276;61701;-32
2023/10/15 07:12:54;;;;;;;8.40;1.40;;;;;;;;;;104570;1277;61711;-35
2023/10/15 07:15:23;;;;;;;4.10;0.90;;;;;;;;;;104621;1276;61689;-34
2023/10/15 07:17:51;;;;;;;5.20;1.30;;;;;;;;;;104546;1276;61590;-32
2023/10/15 07:23:00;;;;;;;5.20;0.90;;;;;;;;;;104833;1278;61528;-32
2023/10/15 07:25:25;;;;;;;9.00;0.80;;;;;;;;;;104675;1276;61569;-34
2023/10/15 07:27:50;;;;;;;4.60;0.90;;;;;;;;;;104588;1281;61931;-35
2023/10/15 07:30:16;;;;;;;5.50;0.80;;;;;;;;;;104596;1276;61707;-34
2023/10/15 07:32:43;;;;;;;6.90;1.10;;;;;;;;;;104742;1276;61582;-35
2023/10/15 07:35:11;;;;;;;3.80;1.10;;;;;;;;;;104641;1277;61634;-34
2023/10/15 07:37:37;;;;;;;6.00;1.10;;;;;;;;;;104533;1276;61576;-32
2023/10/15 07:40:06;;;;;;;6.30;0.70;;;;;;;;;;104576;1276;61689;-33
2023/10/15 07:42:34;;;;;;;6.00;0.70;;;;;;;;;;104582;1282;61587;-31
2023/10/15 07:45:00;;;;;;;2.60;0.40;;;;;;;;;;104540;1282;61671;-35
2023/10/15 07:47:25;;;;;;;7.70;1.00;;;;;;;;;;104574;1277;61647;-34
2023/10/15 07:49:51;;;;;;;3.80;1.20;;;;;;;;;;104481;1276;61579;-32
2023/10/15 07:52:16;;;;;;;4.00;0.80;;;;;;;;;;46819;1282;79993361;-34
2023/10/15 07:54:41;;;;;;;4.00;0.80;;;;;;;;;;16332;1282;81030976;-34
2023/10/15 07:57:09;;;;;;;7.30;1.30;;;;;;;;;;104525;1281;61820;-33
2023/10/15 07:59:35;;;;;;;6.40;1.00;;;;;;;;;;104574;1282;61685;-34
2023/10/15 08:02:00;;;;;;;4.20;1.40;;;;;;;;;;104554;1280;61711;-34
2023/10/15 08:04:26;;;;;;;6.10;0.80;;;;;;;;;;104672;1277;61689;-35
2023/10/15 08:06:52;;;;;;;6.60;1.00;;;;;;;;;;104478;1276;61717;-33
2023/10/15 08:09:17;;;;;;;4.30;1.10;;;;;;;;;;104528;1276;62213;-32
2023/10/15 08:11:43;;;;;;;6.00;1.30;;;;;;;;;;104516;1281;61618;-37
2023/10/15 08:14:09;;;;;;;;;;;;;;;;;;104505;1281;61580;-33
2023/10/15 08:16:34;;;;;;;7.50;1.40;;;;;;;;;;104533;1282;61745;-34
2023/10/15 08:18:59;;;;;;;3.70;0.70;;;;;;;;;;104599;1276;61682;-35
2023/10/15 08:21:25;;;;;;;3.90;1.20;;;;;;;;;;104716;1282;61724;-35
2023/10/15 08:23:50;;;;;;;3.60;1.20;;;;;;;;;;104556;1276;61698;-35
2023/10/15 08:26:15;;;;;;;6.50;1.70;;;;;;;;;;104500;1276;61618;-32
2023/10/15 08:28:40;;;;;;;5.10;1.70;;;;;;;;;;104602;1281;61689;-33
2023/10/15 08:31:06;;;;;;;3.80;0.60;;;;;;;;;;104559;1277;61710;-35
2023/10/15 08:33:32;;;;;;;4.90;0.50;;;;;;;;;;104518;1281;61711;-34
2023/10/15 08:35:59;;;;;;;4.20;0.80;;;;;;;;;;104596;1281;61684;-34
2023/10/15 08:38:25;;;;;;;8.00;1.70;;;;;;;;;;104703;1277;61617;-33
2023/10/15 08:40:50;;;;;;;3.50;0.50;;;;;;;;;;104623;1276;62130;-35
2023/10/15 08:43:20;;;;;;;3.20;1.10;;;;;;;;;;104551;1276;61700;-32
2023/10/15 08:45:45;;;;;;;7.20;0.80;;;;;;;;;;104660;1280;61589;-32
2023/10/15 08:48:11;;;;;;;10.80;1.20;;;;;;;;;;104535;1282;61707;-33
2023/10/15 08:50:37;;;;;;;4.00;0.60;;;;;;;;;;104486;1277;61729;-34
2023/10/15 08:53:04;;;;;;;;;;;;;;;;;;104529;1276;61746;-32
2023/10/15 08:55:29;;;;;;;4.10;0.50;;;;;;;;;;104569;1277;61794;-32
2023/10/15 08:57:54;;;;;;;10.50;1.10;;;;;;;;;;104488;1277;61742;-32
2023/10/15 09:00:28;;;;;;;4.20;0.60;;;;;;;;;;104553;1276;62339;-36
2023/10/15 09:02:57;;;;;;;5.20;1.10;;;;;;;;;;104688;1276;61586;-38
2023/10/15 09:05:22;;;;;;;6.40;0.60;;;;;;;;;;104616;1276;61701;-33
2023/10/15 09:07:49;;;;;;;5.10;0.80;;;;;;;;;;104711;1277;61649;-35
2023/10/15 09:10:15;;;;;;;2.20;0.50;;;;;;;;;;104441;1282;61641;-34
2023/10/15 09:12:40;;;;;;;4.60;0.70;;;;;;;;;;104654;1281;61716;-32
2023/10/15 09:17:55;;;;;;;5.50;0.60;;;;;;;;;;104711;1277;61666;-32
2023/10/15 09:20:26;;;;;;;4.70;0.80;;;;;;;;;;104509;1282;61577;-35
2023/10/15 09:22:57;;;;;;;4.10;0.60;;;;;;;;;;104523;1281;61637;-32
2023/10/15 09:25:22;;;;;;;3.00;0.60;;;;;;;;;;104495;1276;61586;-32
2023/10/15 09:27:47;;;;;;;5.50;1.20;;;;;;;;;;104612;1276;62259;-33
2023/10/15 09:30:19;;;;;;;5.30;0.40;;;;;;;;;;104552;1276;61771;-35
2023/10/15 09:32:47;;;;;;;2.30;0.70;;;;;;;;;;104496;1276;61595;-38
2023/10/15 09:35:13;;;;;;;5.00;0.80;;;;;;;;;;104589;1282;61659;-33
2023/10/15 09:37:39;;;;;;;2.60;0.60;;;;;;;;;;104554;1282;61675;-35
2023/10/15 09:40:09;;;;;;;2.40;0.70;;;;;;;;;;104688;1277;61630;-35
2023/10/15 09:42:35;;;;;;;2.90;0.50;;;;;;;;;;104553;1279;61961;-34
2023/10/15 09:45:02;;;;;;;2.30;0.40;;;;;;;;;;104571;1279;61618;-35
2023/10/15 09:47:27;;;;;;;4.70;0.40;;;;;;;;;;104585;1282;61576;-33
2023/10/15 09:49:52;;;;;;;6.60;0.50;;;;;;;;;;104669;1280;61707;-35
2023/10/15 09:52:18;;;;;;;2.90;0.30;;;;;;;;;;104492;1279;61760;-33
2023/10/15 09:54:43;;;;;;;;;;;;;;;;;;104478;1282;61589;-33
2023/10/15 09:57:09;;;;;;;2.70;0.60;;;;;;;;;;104517;1282;61726;-35
2023/10/15 09:59:34;;;;;;;3.90;0.60;;;;;;;;;;104533;1282;61740;-38
2023/10/15 10:02:06;;;;;;;4.30;0.60;;;;;;;;;;104565;1281;61700;-36
2023/10/15 10:04:40;;;;;;;2.20;0.50;;;;;;;;;;104428;1282;61605;-33
2023/10/15 10:07:05;;;;;;;3.30;0.60;;;;;;;;;;104744;1276;61599;-32
2023/10/15 10:09:37;;;;;;;5.60;0.70;;;;;;;;;;104570;1277;61762;-36
2023/10/15 10:12:05;;;;;;;4.40;0.50;;;;;;;;;;104550;1282;61580;-34
2023/10/15 10:14:39;;;;;;;4.70;0.40;;;;;;;;;;104610;1282;61570;-34
2023/10/15 10:17:05;;;;;;;3.10;0.50;;;;;;;;;;104502;1281;61593;-34
2023/10/15 10:19:31;;;;;;;3.50;0.50;;;;;;;;;;104756;1276;61609;-32
2023/10/15 10:21:56;;;;;;;2.80;0.50;;;;;;;;;;104505;1277;61649;-34
2023/10/15 10:24:23;;;;;;;1.10;0.30;;;;;;;;;;104590;1276;61703;-32
2023/10/15 10:26:56;;;;;;;2.70;0.50;;;;;;;;;;104569;1277;61812;-33
2023/10/15 10:29:26;;;;;;;7.30;0.60;;;;;;;;;;104602;1281;61701;-33
2023/10/15 10:31:54;;;;;;;3.20;0.70;;;;;;;;;;104789;1280;61510;-32
2023/10/15 10:34:32;;;;;;;3.00;0.60;;;;;;;;;;104682;1281;61605;-35
2023/10/15 10:36:58;;;;;;;4.40;0.60;;;;;;;;;;104489;1280;61490;-35
2023/10/15 10:39:25;;;;;;;3.90;0.70;;;;;;;;;;104579;1280;61617;-33
2023/10/15 10:41:51;;;;;;;3.00;0.50;;;;;;;;;;104562;1280;61566;-35
2023/10/15 10:44:22;;;;;;;2.40;0.50;;;;;;;;;;104515;1277;61691;-35
2023/10/15 10:46:48;;;;;;;4.70;0.60;;;;;;;;;;104470;1282;61583;-33
2023/10/15 10:49:13;;;;;;;2.90;0.90;;;;;;;;;;104517;1280;61681;-32
2023/10/15 10:51:40;;;;;;;3.30;0.40;;;;;;;;;;104632;1279;61841;-35
2023/10/15 10:54:05;;;;;;;2.20;0.40;;;;;;;;;;104520;1276;61666;-33
2023/10/15 10:56:47;;;;;;;2.40;0.40;;;;;;;;;;104516;1282;61698;-34
2023/10/15 10:59:12;;;;;;;2.20;0.40;;;;;;;;;;104494;1280;62018;-31
2023/10/15 11:01:39;;;;;;;3.00;0.70;;;;;;;;;;104434;1282;61647;-35
2023/10/15 11:04:07;;;;;;;5.80;0.90;;;;;;;;;;104495;1279;61583;-33
2023/10/15 11:06:33;;;;;;;2.00;0.60;;;;;;;;;;104557;1277;61592;-37
2023/10/15 11:09:00;;;;;;;5.20;0.80;;;;;;;;;;104523;1276;61617;-32
2023/10/15 11:11:26;;;;;;;4.00;0.60;;;;;;;;;;104523;1280;61685;-33
2023/10/15 11:13:51;;;;;;;3.50;0.60;;;;;;;;;;104574;1282;61979;-37
2023/10/15 11:16:17;;;;;;;6.20;0.80;;;;;;;;;;104582;1277;61699;-34
2023/10/15 11:18:45;;;;;;;2.40;0.60;;;;;;;;;;104521;1277;62631;-36
2023/10/15 11:21:10;;;;;;;4.70;0.30;;;;;;;;;;104651;1277;62613;-33
2023/10/15 11:23:35;;;;;;;5.70;0.80;;;;;;;;;;104691;1277;62448;-33
2023/10/15 11:26:00;;;;;;;5.70;0.70;;;;;;;;;;104439;1281;62293;-35
2023/10/15 11:28:26;;;;;;;3.50;0.60;;;;;;;;;;104545;1282;62053;-33
2023/10/15 11:30:52;;;;;;;5.20;0.80;;;;;;;;;;104436;1280;61720;-35
2023/10/15 11:33:18;;;;;;;4.10;0.60;;;;;;;;;;104459;1282;61493;-33
2023/10/15 11:35:51;;;;;;;2.60;0.60;;;;;;;;;;104427;1277;61703;-33
2023/10/15 11:38:16;;;;;;;3.60;0.50;;;;;;;;;;104457;1281;62031;-36
2023/10/15 11:40:45;;;;;;;3.40;0.50;;;;;;;;;;104572;1281;61726;-36
2023/10/15 11:43:27;;;;;;;3.70;0.40;;;;;;;;;;104440;1282;61701;-31
2023/10/15 11:45:56;;;;;;;2.90;0.90;;;;;;;;;;104473;1280;61698;-32
2023/10/15 11:48:21;;;;;;;4.60;0.70;;;;;;;;;;104488;1282;61593;-32
2023/10/15 11:50:48;;;;;;;3.50;0.70;;;;;;;;;;104467;1277;61712;-34
2023/10/15 11:53:16;;;;;;;5.40;0.60;;;;;;;;;;104592;1281;61647;-32
2023/10/15 11:55:43;;;;;;;3.90;0.60;;;;;;;;;;104622;1282;61685;-32
2023/10/15 11:58:10;;;;;;;2.50;0.90;;;;;;;;;;104538;1279;62188;-35
2023/10/15 12:00:39;;;;;;;2.50;0.70;;;;;;;;;;104488;1282;61656;-33
2023/10/15 12:03:05;;;;;;;8.20;1.10;;;;;;;;;;104652;1281;61516;-38
2023/10/15 12:05:31;;;;;;;8.20;1.00;;;;;;;;;;104481;1282;61977;-34
2023/10/15 12:07:58;;;;;;;3.80;0.50;;;;;;;;;;104649;1276;61659;-35
2023/10/15 12:10:23;;;;;;;1.90;0.50;;;;;;;;;;104457;1282;61637;-35
2023/10/15 12:12:49;;;;;;;3.00;0.80;;;;;;;;;;104508;1279;61726;-33
2023/10/15 12:15:14;;;;;;;;;;;;;;;;;;104603;1280;61681;-33
2023/10/15 12:17:39;;;;;;;2.40;0.40;;;;;;;;;;104490;1278;61692;-33
2023/10/15 12:20:06;;;;;;;3.20;0.40;;;;;;;;;;104711;1282;62429;-35
2023/10/15 12:22:32;;;;;;;5.60;0.60;;;;;;;;;;104514;1280;61993;-33
2023/10/15 12:25:00;;;;;;;2.30;0.40;;;;;;;;;;104520;1281;61726;-35
2023/10/15 12:27:28;;;;;;;4.60;0.70;;;;;;;;;;104507;1282;61595;-33
2023/10/15 12:29:54;;;;;;;4.10;0.50;;;;;;;;;;104732;1276;61590;-32
2023/10/15 12:32:20;;;;;;;3.80;0.60;;;;;;;;;;104594;1276;61980;-33
2023/10/15 12:34:45;;;;;;;6.20;0.80;;;;;;;;;;104557;1283;61702;-35
2023/10/15 12:37:13;;;;;;;4.50;0.70;;;;;;;;;;104478;1277;62187;-35
2023/10/15 12:39:40;;;;;;;3.40;0.50;;;;;;;;;;104589;1280;61618;-32
2023/10/15 12:42:08;;;;;;;3.90;0.60;;;;;;;;;;104437;1282;61630;-33
2023/10/15 12:44:39;;;;;;;1.00;0.30;;;;;;;;;;104590;1277;62289;-33
2023/10/15 12:47:04;;;;;;;4.50;0.60;;;;;;;;;;104475;1278;61987;-34
2023/10/15 12:49:29;;;;;;;4.50;0.60;;;;;;;;;;104482;1276;62034;-34
2023/10/15 12:51:55;;;;;;;5.10;0.30;;;;;;;;;;104494;1276;61710;-36
2023/10/15 12:54:20;;;;;;;4.10;0.50;;;;;;;;;;104692;1280;61689;-34
2023/10/15 12:56:45;;;;;;;3.70;0.60;;;;;;;;;;104545;1280;61745;-32
2023/10/15 12:59:11;;;;;;;7.10;0.90;;;;;;;;;;104554;1280;61507;-34
2023/10/15 13:01:40;;;;;;;4.00;0.60;;;;;;;;;;104490;1280;61585;-32
2023/10/15 13:04:06;;;;;;;3.70;0.60;;;;;;;;;;104465;1279;61592;-36
2023/10/15 13:06:31;;;;;;;4.20;0.60;;;;;;;;;;104425;1277;61684;-32
2023/10/15 13:08:56;;;;;;;5.40;0.70;;;;;;;;;;104478;1279;61727;-32
2023/10/15 13:11:21;;;;;;;1.70;0.50;;;;;;;;;;104490;1277;61695;-31
2023/10/15 13:13:47;;;;;;;5.10;0.50;;;;;;;;;;104540;1276;61723;-34
2023/10/15 13:16:12;;;;;;;3.50;1.00;;;;;;;;;;104474;1280;61605;-34
2023/10/15 13:18:39;;;;;;;4.80;0.40;;;;;;;;;;104673;1280;61809;-35
2023/10/15 13:21:04;;;;;;;3.20;0.60;;;;;;;;;;104641;1280;61707;-35
2023/10/15 13:23:30;;;;;;;6.10;1.10;;;;;;;;;;104546;1277;61726;-33
2023/10/15 13:25:56;;;;;;;4.40;1.60;;;;;;;;;;104568;1277;62101;-33
2023/10/15 13:28:21;;;;;;;13.40;4.80;;;;;;;;;;104590;1277;63390;-35
2023/10/15 13:30:47;;;;;;;10.70;3.60;;;;;;;;;;104543;1277;62154;-35
2023/10/15 13:33:12;;;;;;;35.80;12.20;;;;;;;;;;104497;1280;61563;-33
2023/10/15 13:35:38;;;;;;;29.20;9.10;;;;;;;;;;104484;1277;61703;-34
2023/10/15 13:38:03;;;;;;;11.20;5.00;;;;;;;;;;104451;1282;61806;-33
2023/10/15 13:40:28;;;;;;;5.90;1.40;;;;;;;;;;104608;1280;61624;-33
2023/10/15 13:42:54;;;;;;;9.70;3.00;;;;;;;;;;104621;1280;61710;-35
2023/10/15 13:45:19;;;;;;;6.70;0.80;;;;;;;;;;104507;1280;61583;-34
2023/10/15 13:47:46;;;;;;;7.00;2.40;;;;;;;;;;104551;1276;61733;-32
2023/10/15 13:50:17;;;;;;;7.20;2.40;;;;;;;;;;104732;1276;61560;-31
2023/10/15 14:32:01;;;;;;;8.50;2.90;;;;;;;;;;103733;1284;600313;-33
2023/10/15 14:34:33;;;;;;;4.00;2.20;;;;;;;;;;103770;1294;94819;-32
2023/10/15 14:37:00;;;;;;;2.80;1.00;;;;;;;;;;103992;1284;60147;-34
2023/10/15 14:39:27;;;;;;;5.60;1.60;;;;;;;;;;103933;1282;60177;-34
2023/10/15 14:41:54;;;;;;;5.20;0.50;;;;;;;;;;104056;1284;60316;-32
2023/10/15 14:44:19;;;;;;;2.00;0.60;;;;;;;;;;104024;1284;60119;-35
2023/10/15 14:46:44;;;;;;;1.50;0.40;;;;;;;;;;103959;1300;60264;-33
2023/10/15 14:49:09;;;;;;;1.00;0.40;;;;;;;;;;103881;1298;60644;-33
2023/10/15 14:51:35;;;;;;;2.00;0.40;;;;;;;;;;103876;1300;60205;-31
2023/10/15 14:54:00;;;;;;;2.80;0.50;;;;;;;;;;103939;1300;60259;-31
2023/10/15 14:56:26;;;;;;;2.40;0.50;;;;;;;;;;103834;1284;61292;-32
2023/10/15 14:58:51;;;;;;;4.80;0.40;;;;;;;;;;104018;1284;60883;-33
2023/10/15 15:01:17;;;;;;;3.70;0.50;;;;;;;;;;103890;1298;60874;-34
2023/10/15 15:03:42;;;;;;;3.90;0.70;;;;;;;;;;103912;1284;60884;-32
2023/10/15 15:06:09;;;;;;;1.70;0.50;;;;;;;;;;103867;1287;60899;-32
2023/10/15 15:08:35;;;;;;;3.80;0.60;;;;;;;;;;104003;1286;60762;-35
2023/10/15 15:11:00;;;;;;;4.00;0.40;;;;;;;;;;103999;1300;60924;-38
2023/10/15 15:13:26;;;;;;;6.40;2.10;;;;;;;;;;104008;1296;60873;-33
2023/10/15 15:15:51;;;;;;;6.50;2.20;;;;;;;;;;103934;1284;60890;-35
2023/10/15 15:18:16;;;;;;;11.30;1.70;;;;;;;;;;104042;1300;60876;-33
2023/10/15 15:20:41;;;;;;;6.60;0.80;;;;;;;;;;103936;1297;60882;-33
2023/10/15 15:23:07;;;;;;;3.20;0.80;;;;;;;;;;103998;1297;60889;-33
2023/10/15 15:25:36;;;;;;;3.50;1.50;;;;;;;;;;103892;1284;60858;-35
2023/10/15 15:28:01;;;;;;;3.00;1.00;;;;;;;;;;103947;1282;60849;-34
2023/10/15 15:30:26;;;;;;;4.00;0.80;;;;;;;;;;103884;1297;60944;-33
2023/10/15 15:32:53;;;;;;;4.90;1.20;;;;;;;;;;103872;1298;60896;-34
2023/10/15 15:35:18;;;;;;;2.80;1.10;;;;;;;;;;103957;1285;60899;-35
2023/10/15 15:37:44;;;;;;;4.30;1.70;;;;;;;;;;103741;1287;61401;-35
2023/10/15 15:40:11;;;;;;;2.00;0.40;;;;;;;;;;103901;1281;60881;-35
2023/10/15 15:42:37;;;;;;;1.80;0.40;;;;;;;;;;104013;1297;60811;-33
2023/10/15 15:45:02;;;;;;;;;;;;;;;;;;103903;1298;60879;-33
2023/10/15 15:47:27;;;;;;;3.00;1.30;;;;;;;;;;103883;1297;60894;-31
2023/10/15 15:49:53;;;;;;;5.00;2.20;;;;;;;;;;103879;1300;60860;-32
2023/10/15 15:52:18;;;;;;;4.80;1.20;;;;;;;;;;103867;1298;60878;-32
2023/10/15 15:54:43;;;;;;;5.10;1.50;;;;;;;;;;103865;1297;60865;-33